createdAt,value
2023-05-18T00:00:03.389Z,9.12866
2023-05-18T00:05:04.262Z,9.00461
2023-05-18T00:10:05.240Z,8.89801
2023-05-18T00:15:06.280Z,8.86894
2023-05-18T00:20:07.249Z,8.82177
2023-05-18T00:25:08.129Z,8.83082
2023-05-18T00:30:09.122Z,8.77526
2023-05-18T00:35:10.258Z,8.7562
2023-05-18T00:40:11.214Z,8.73584
2023-05-18T00:45:12.167Z,8.68061
2023-05-18T00:50:13.121Z,8.57271
2023-05-18T00:55:13.990Z,8.52878
2023-05-18T01:00:15.002Z,8.5165
2023-05-18T01:05:16.014Z,8.43252
2023-05-18T01:10:22.143Z,8.37695
2023-05-18T01:15:23.056Z,8.41959
2023-05-18T01:20:23.964Z,8.33851
2023-05-18T01:25:24.882Z,8.24936
2023-05-18T01:30:25.985Z,8.26422
2023-05-18T01:35:27.011Z,8.21673
2023-05-18T01:40:27.920Z,8.19153
2023-05-18T01:45:29.044Z,8.20252
2023-05-18T01:50:30.143Z,8.19282
2023-05-18T01:55:31.405Z,8.19573
2023-05-18T02:00:32.587Z,8.20025
2023-05-18T02:05:33.702Z,8.20349
2023-05-18T02:10:34.566Z,8.20478
2023-05-18T02:15:35.430Z,8.20381
2023-05-18T02:20:36.574Z,8.35596
2023-05-18T02:25:37.570Z,8.37146
2023-05-18T02:30:38.485Z,8.17344
2023-05-18T02:35:39.389Z,8.05974
2023-05-18T02:40:40.303Z,8.01871
2023-05-18T02:45:41.233Z,7.8853
2023-05-18T02:55:42.615Z,7.88821
2023-05-18T03:00:43.526Z,7.83491
2023-05-18T03:05:44.458Z,8.11433
2023-05-18T03:10:45.294Z,7.95798
2023-05-18T03:15:46.162Z,7.74575
2023-05-18T03:20:47.038Z,7.63398
2023-05-18T03:25:47.985Z,7.60491
2023-05-18T03:30:48.938Z,7.57099
2023-05-18T03:35:50.003Z,7.49185
2023-05-18T03:40:50.981Z,7.48345
2023-05-18T03:45:52.041Z,7.59619
2023-05-18T03:50:53.025Z,7.90306
2023-05-18T03:55:54.004Z,8.08332
2023-05-18T04:00:54.910Z,7.86818
2023-05-18T04:05:55.921Z,7.96703
2023-05-18T04:10:56.834Z,7.89014
2023-05-18T04:15:57.737Z,7.81359
2023-05-18T04:20:58.678Z,7.79873
2023-05-18T04:25:59.584Z,7.83071
2023-05-18T04:31:00.496Z,7.87238
2023-05-18T04:36:01.470Z,7.92891
2023-05-18T04:41:02.415Z,8.06878
2023-05-18T04:46:03.467Z,8.2177
2023-05-18T04:51:04.376Z,8.64443
2023-05-18T04:56:05.264Z,8.89058
2023-05-18T05:01:06.163Z,8.60243
2023-05-18T05:06:07.083Z,8.50875
2023-05-18T05:11:07.955Z,8.52813
2023-05-18T05:16:09.043Z,8.69159
2023-05-18T05:21:09.995Z,8.81725
2023-05-18T05:26:10.945Z,8.82306
2023-05-18T05:31:11.920Z,9.11929
2023-05-18T05:36:13.092Z,11.42353
2023-05-18T05:41:14.046Z,10.74482
2023-05-18T05:46:15.012Z,10.34296
2023-05-18T05:51:15.963Z,10.47573
2023-05-18T05:56:16.900Z,10.37591
2023-05-18T06:01:17.799Z,10.26769
2023-05-18T06:06:18.796Z,10.57135
2023-05-18T06:11:19.723Z,10.51869
2023-05-18T06:16:20.628Z,10.38431
2023-05-18T06:21:21.531Z,10.53194
2023-05-18T06:26:22.420Z,10.5875
2023-05-18T06:31:23.444Z,10.80426
2023-05-18T06:36:24.374Z,10.76259
2023-05-18T06:41:25.262Z,10.84173
2023-05-18T06:46:26.493Z,11.10178
2023-05-18T06:51:27.486Z,11.78534
2023-05-18T06:56:28.396Z,11.5702
2023-05-18T07:01:29.370Z,11.7763
2023-05-18T07:06:30.259Z,12.09611
2023-05-18T07:11:31.195Z,12.00243
2023-05-18T07:16:32.242Z,11.99145
2023-05-18T07:21:33.198Z,11.89615
2023-05-18T07:26:34.125Z,12.02763
2023-05-18T07:31:35.133Z,11.99985
2023-05-18T07:36:36.020Z,12.21758
2023-05-18T07:41:37.037Z,12.28251
2023-05-18T07:46:38.085Z,12.44727
2023-05-18T07:51:39.055Z,12.68761
2023-05-18T07:56:40.048Z,13.1079
2023-05-18T08:01:41.048Z,13.38217
2023-05-18T08:06:42.032Z,13.57923
2023-05-18T08:11:43.067Z,13.71298
2023-05-18T08:16:43.953Z,13.85997
2023-05-18T08:21:44.938Z,14.06704
2023-05-18T08:26:45.837Z,15.20678
2023-05-18T08:31:49.335Z,16.39726
2023-05-18T08:36:50.785Z,16.38143
2023-05-18T08:41:51.699Z,16.12912
2023-05-18T08:46:52.652Z,15.378
2023-05-18T08:51:53.995Z,14.77486
2023-05-18T08:56:54.911Z,14.66276
2023-05-18T09:01:55.916Z,14.42919
2023-05-18T09:06:56.901Z,14.22825
2023-05-18T09:11:57.815Z,14.05703
2023-05-18T09:16:58.724Z,14.13456
2023-05-18T09:21:59.620Z,14.15879
2023-05-18T09:27:00.670Z,14.02925
2023-05-18T09:32:01.979Z,14.07415
2023-05-18T09:37:02.947Z,13.94557
2023-05-18T09:42:03.847Z,13.80666
2023-05-18T09:47:04.941Z,13.96399
2023-05-18T09:52:05.973Z,14.11098
2023-05-18T09:57:10.412Z,14.19174
2023-05-18T10:02:12.332Z,14.71767
2023-05-18T10:07:13.200Z,15.01392
2023-05-18T10:12:14.147Z,15.28755
2023-05-18T10:17:16.612Z,15.15477
2023-05-18T10:22:18.418Z,15.06787
2023-05-18T10:27:19.307Z,14.88405
2023-05-18T10:32:20.264Z,14.90343
2023-05-18T10:37:21.152Z,15.19063
2023-05-18T10:42:22.057Z,15.15154
2023-05-18T10:47:23.250Z,14.99066
2023-05-18T10:52:24.306Z,14.92863
2023-05-18T10:57:25.198Z,15.38608
2023-05-18T11:02:26.520Z,15.5111
2023-05-18T11:07:27.426Z,15.79378
2023-05-18T11:12:28.398Z,16.07161
2023-05-18T11:17:29.323Z,16.1275
2023-05-18T11:22:30.297Z,15.71948
2023-05-18T11:27:31.205Z,15.59058
2023-05-18T11:32:32.447Z,15.57055
2023-05-18T11:37:33.753Z,15.92914
2023-05-18T11:42:34.744Z,16.25123
2023-05-18T11:47:35.642Z,16.39467
2023-05-18T11:52:36.528Z,16.95325
2023-05-18T11:57:37.411Z,16.8993
2023-05-18T12:02:38.454Z,16.61209
2023-05-18T12:07:39.484Z,16.25576
2023-05-18T12:12:40.665Z,16.61629
2023-05-18T12:17:41.618Z,16.97102
2023-05-18T12:22:42.588Z,17.31637
2023-05-18T12:27:43.491Z,17.6921
2023-05-18T12:32:44.454Z,18.03616
2023-05-18T12:37:46.269Z,18.50461
2023-05-18T12:42:47.442Z,18.94496
2023-05-18T12:47:48.446Z,18.59766
2023-05-18T12:52:49.343Z,18.3195
2023-05-18T12:57:50.275Z,17.88949
2023-05-18T13:02:51.391Z,18.41254
2023-05-18T13:07:53.034Z,19.12006
2023-05-18T13:12:54.194Z,19.41664
2023-05-18T13:17:55.188Z,19.87218
2023-05-18T13:22:56.122Z,20.4395
2023-05-18T13:27:56.997Z,20.12514
2023-05-18T13:37:58.370Z,20.23757
2023-05-18T13:42:59.273Z,20.64368
2023-05-18T13:48:00.297Z,20.41171
2023-05-18T13:53:01.311Z,20.04276
2023-05-18T13:58:02.212Z,19.56203
2023-05-18T14:03:03.228Z,19.37658
2023-05-18T14:08:04.167Z,20.05019
2023-05-18T14:23:16.051Z,21.19388
2023-05-18T14:28:16.979Z,21.33668
2023-05-18T14:33:17.962Z,20.82396
2023-05-18T14:38:18.872Z,20.37391
2023-05-18T14:43:19.788Z,20.18523
2023-05-18T14:48:20.713Z,19.95908
2023-05-18T14:53:21.608Z,19.83922
2023-05-18T14:58:22.528Z,19.5827
2023-05-18T15:03:24.455Z,19.2228
2023-05-18T15:08:27.439Z,19.12588
2023-05-18T15:13:28.354Z,18.89908
2023-05-18T15:18:29.249Z,18.90974
2023-05-18T15:23:30.149Z,19.00537
2023-05-18T15:28:31.068Z,19.04705
2023-05-18T15:33:32.001Z,18.99859
2023-05-18T15:38:32.910Z,18.90328
2023-05-18T15:43:33.860Z,18.7957
2023-05-18T15:48:34.744Z,18.56503
2023-05-18T15:53:35.662Z,18.24842
2023-05-18T15:58:36.573Z,18.12889
2023-05-18T16:03:37.912Z,17.84362
2023-05-18T16:08:38.859Z,17.78482
2023-05-18T16:13:39.745Z,17.66981
2023-05-18T16:18:40.664Z,17.62329
2023-05-18T16:23:41.640Z,17.47629
2023-05-18T16:28:42.537Z,17.40554
2023-05-18T16:33:43.528Z,17.24724
2023-05-18T16:38:44.483Z,17.23173
2023-05-18T16:43:45.335Z,17.20039
2023-05-18T16:48:46.227Z,17.10121
2023-05-18T16:53:47.123Z,17.02852
2023-05-18T16:58:48.162Z,16.89316
2023-05-18T17:03:49.199Z,16.76523
2023-05-18T17:08:50.167Z,16.61532
2023-05-18T17:13:51.049Z,16.42698
2023-05-18T17:18:52.480Z,16.42407
2023-05-18T17:23:53.534Z,16.3769
2023-05-18T17:28:54.456Z,16.34395
2023-05-18T17:33:55.374Z,16.25382
2023-05-18T17:38:56.312Z,16.20245
2023-05-18T17:43:57.272Z,16.25123
2023-05-18T17:48:58.510Z,16.23153
2023-05-18T17:53:59.439Z,16.11684
2023-05-18T17:59:00.360Z,16.10521
2023-05-18T18:04:01.464Z,16.0603
2023-05-18T18:09:02.501Z,15.96952
2023-05-18T18:14:03.485Z,15.88036
2023-05-18T18:19:04.393Z,15.71302
2023-05-18T18:24:05.385Z,15.61254
2023-05-18T18:29:06.275Z,15.52403
2023-05-18T18:34:07.203Z,15.45489
2023-05-18T18:39:08.203Z,15.34117
2023-05-18T18:44:09.120Z,15.22714
2023-05-18T18:49:10.076Z,15.14217
2023-05-18T18:54:11.002Z,15.04558
2023-05-18T18:59:11.914Z,14.90085
2023-05-18T19:04:12.858Z,14.76839
2023-05-18T19:09:13.834Z,14.6634
2023-05-18T19:14:14.830Z,14.57295
2023-05-18T19:19:16.028Z,14.46569
2023-05-18T19:24:17.000Z,14.36038
2023-05-18T19:29:17.928Z,14.27832
2023-05-18T19:34:18.807Z,14.16299
2023-05-18T19:39:19.682Z,14.05671
2023-05-18T19:44:20.590Z,13.94977
2023-05-18T19:49:21.466Z,13.85092
2023-05-18T19:54:22.399Z,13.78792
2023-05-18T19:59:23.387Z,13.70716
2023-05-18T20:04:24.850Z,13.63448
2023-05-18T20:09:26.036Z,13.48619
2023-05-18T20:14:27.151Z,13.3741
2023-05-18T20:19:28.335Z,13.03683
2023-05-18T20:24:29.381Z,12.87724
2023-05-18T20:29:30.308Z,12.79293
2023-05-18T20:34:31.324Z,12.77548
2023-05-18T20:39:32.216Z,12.49605
2023-05-18T20:44:33.132Z,12.3665
2023-05-18T20:49:34.050Z,12.33065
2023-05-18T20:54:34.970Z,12.2473
2023-05-18T20:59:35.856Z,12.0903
2023-05-18T21:04:36.891Z,12.06769
2023-05-18T21:09:37.742Z,11.97562
2023-05-18T21:14:38.633Z,11.90196
2023-05-18T21:19:39.510Z,11.76984
2023-05-18T21:24:40.376Z,11.70781
2023-05-18T21:29:41.283Z,11.58796
2023-05-18T21:34:43.632Z,11.52497
2023-05-18T21:39:44.734Z,11.47167
2023-05-18T21:44:45.754Z,11.41546
2023-05-18T21:49:46.631Z,11.33114
2023-05-18T21:54:47.526Z,11.23843
2023-05-18T21:59:48.429Z,11.22809
2023-05-18T22:04:49.316Z,11.17964
2023-05-18T22:09:50.221Z,11.0908
2023-05-18T22:14:51.122Z,11.02231
2023-05-18T22:19:52.036Z,10.93994
2023-05-18T22:24:52.972Z,10.91151
2023-05-18T22:29:53.849Z,10.82687
2023-05-18T22:34:54.736Z,10.76033
2023-05-18T22:39:55.644Z,10.6786
2023-05-18T22:44:56.554Z,10.60494
2023-05-18T22:49:57.441Z,10.52612
2023-05-18T22:54:58.330Z,10.43082
2023-05-18T22:59:59.286Z,10.3982
2023-05-18T23:05:00.390Z,10.30678
2023-05-18T23:10:01.363Z,10.25089
2023-05-18T23:15:02.377Z,10.15495
2023-05-18T23:20:03.272Z,10.0645
2023-05-18T23:25:04.163Z,9.9734
2023-05-18T23:30:05.082Z,9.89329
2023-05-18T23:35:06.073Z,9.88941
2023-05-18T23:40:07.037Z,9.79734
2023-05-18T23:45:07.939Z,9.72563
2023-05-18T23:50:08.881Z,9.64842
2023-05-18T23:55:09.764Z,9.58478
